createdAt,value
2022-12-14T00:00:09.460Z,100435.13
2022-12-14T00:03:12.253Z,100437.72
2022-12-14T00:06:17.932Z,100435.13
2022-12-14T00:09:22.036Z,100432.53
2022-12-14T00:12:24.641Z,100430.78
2022-12-14T00:15:27.622Z,100432.50
2022-12-14T00:18:30.307Z,100435.97
2022-12-14T00:21:32.952Z,100428.16
2022-12-14T00:24:36.894Z,100423.84
2022-12-14T00:27:44.510Z,100435.13
2022-12-14T00:30:47.134Z,100423.84
2022-12-14T00:33:50.553Z,100422.09
2022-12-14T00:36:53.172Z,100422.94
2022-12-14T00:39:57.099Z,100426.41
2022-12-14T00:42:59.685Z,100415.16
2022-12-14T00:46:02.392Z,100406.47
2022-12-14T00:49:05.101Z,100405.59
2022-12-14T00:52:07.684Z,100403.84
2022-12-14T00:55:11.862Z,100414.25
2022-12-14T00:58:16.462Z,100408.19
2022-12-14T01:01:19.282Z,100413.38
2022-12-14T01:04:24.460Z,100409.91
2022-12-14T01:07:27.083Z,100405.56
2022-12-14T01:10:31.054Z,100402.97
2022-12-14T01:13:33.928Z,100404.69
2022-12-14T01:16:36.540Z,100402.94
2022-12-14T01:19:39.177Z,100406.41
2022-12-14T01:22:41.756Z,100402.09
2022-12-14T01:25:45.726Z,100404.66
2022-12-14T01:28:53.375Z,100395.13
2022-12-14T01:31:55.956Z,100396.84
2022-12-14T01:34:58.558Z,100394.28
2022-12-14T01:38:01.136Z,100393.41
2022-12-14T01:41:06.202Z,100391.66
2022-12-14T01:44:46.012Z,100391.66
2022-12-14T01:47:52.767Z,100382.09
2022-12-14T01:50:55.409Z,100381.19
2022-12-14T01:53:59.401Z,100384.72
2022-12-14T01:57:03.548Z,100377.81
2022-12-14T02:00:10.270Z,100371.72
2022-12-14T02:03:17.193Z,100370.88
2022-12-14T02:06:26.440Z,100376.94
2022-12-14T02:09:33.021Z,100365.66
2022-12-14T02:12:42.685Z,100358.75
2022-12-14T02:15:45.883Z,100369.97
2022-12-14T02:18:48.488Z,100361.31
2022-12-14T02:22:10.774Z,100362.19
2022-12-14T02:25:49.479Z,100366.50
2022-12-14T02:29:32.538Z,100364.78
2022-12-14T02:32:47.219Z,100369.97
2022-12-14T02:35:55.354Z,100360.44
2022-12-14T02:39:08.491Z,100363.91
2022-12-14T02:42:14.782Z,100355.22
2022-12-14T02:45:26.794Z,100358.69
2022-12-14T02:48:36.866Z,100348.31
2022-12-14T02:51:52.109Z,100331.84
2022-12-14T02:55:01.898Z,100330.94
2022-12-14T02:58:09.910Z,100326.63
2022-12-14T03:01:17.940Z,100337.88
2022-12-14T03:04:20.698Z,100328.34
2022-12-14T03:07:32.410Z,100322.28
2022-12-14T03:10:40.504Z,100324.03
2022-12-14T03:13:51.066Z,100314.50
2022-12-14T03:17:00.404Z,100308.41
2022-12-14T03:20:09.763Z,100304.06
2022-12-14T03:23:15.867Z,100302.34
2022-12-14T03:26:25.943Z,100309.28
2022-12-14T03:29:32.233Z,100297.13
2022-12-14T03:32:41.960Z,100302.34
2022-12-14T03:35:50.608Z,100300.63
2022-12-14T03:38:58.054Z,100290.19
2022-12-14T03:42:11.098Z,100290.19
2022-12-14T03:45:19.201Z,100283.25
2022-12-14T03:48:32.530Z,100273.72
2022-12-14T03:51:40.859Z,100269.38
2022-12-14T03:54:50.629Z,100267.66
2022-12-14T03:58:20.414Z,100265.06
2022-12-14T04:01:36.042Z,100260.69
2022-12-14T04:04:47.624Z,100261.56
2022-12-14T04:08:01.036Z,100255.50
2022-12-14T04:11:23.585Z,100263.31
2022-12-14T04:14:49.839Z,100267.63
2022-12-14T04:18:14.185Z,100268.47
2022-12-14T04:21:25.147Z,100260.69
2022-12-14T04:24:50.921Z,100252.03
2022-12-14T04:27:59.610Z,100246.84
2022-12-14T04:31:06.213Z,100243.38
2022-12-14T04:34:12.904Z,100247.72
2022-12-14T04:37:20.550Z,100245.06
2022-12-14T04:40:27.034Z,100241.63
2022-12-14T04:43:34.748Z,100245.06
2022-12-14T04:46:40.921Z,100246.84
2022-12-14T04:49:49.227Z,100244.22
2022-12-14T04:53:00.029Z,100239.91
2022-12-14T04:56:11.725Z,100239.84
2022-12-14T04:59:14.588Z,100241.59
2022-12-14T05:02:24.500Z,100231.19
2022-12-14T05:05:35.433Z,100233.81
2022-12-14T05:08:57.672Z,100221.59
2022-12-14T05:12:05.945Z,100220.75
2022-12-14T05:15:14.179Z,100225.09
2022-12-14T05:18:17.353Z,100223.28
2022-12-14T05:21:33.847Z,100231.19
2022-12-14T05:24:37.917Z,100226.00
2022-12-14T05:27:40.513Z,100222.50
2022-12-14T05:30:43.264Z,100225.94
2022-12-14T05:33:51.539Z,100223.38
2022-12-14T05:36:54.455Z,100213.81
2022-12-14T05:39:58.565Z,100217.25
2022-12-14T05:43:08.194Z,100218.13
2022-12-14T05:46:12.251Z,100211.25
2022-12-14T05:49:14.894Z,100213.78
2022-12-14T05:52:17.971Z,100210.31
2022-12-14T05:55:22.276Z,100205.09
2022-12-14T05:58:24.889Z,100200.78
2022-12-14T06:01:27.569Z,100204.25
2022-12-14T06:04:30.385Z,100193.03
2022-12-14T06:07:32.997Z,100191.28
2022-12-14T06:10:36.953Z,100185.19
2022-12-14T06:13:41.143Z,100191.22
2022-12-14T06:16:45.428Z,100186.88
2022-12-14T06:19:50.164Z,100198.97
2022-12-14T06:22:55.289Z,100192.91
2022-12-14T06:25:59.254Z,100185.22
2022-12-14T06:29:01.836Z,100176.53
2022-12-14T06:32:04.601Z,100174.81
2022-12-14T06:35:08.681Z,100175.66
2022-12-14T06:38:11.484Z,100178.22
2022-12-14T06:41:15.638Z,100178.19
2022-12-14T06:44:18.417Z,100185.19
2022-12-14T06:47:21.002Z,100179.94
2022-12-14T06:50:23.573Z,100182.53
2022-12-14T06:53:26.462Z,100180.81
2022-12-14T06:56:30.968Z,100183.34
2022-12-14T06:59:33.569Z,100181.59
2022-12-14T07:02:36.356Z,100185.97
2022-12-14T07:05:41.959Z,100187.59
2022-12-14T07:08:47.379Z,100183.31
2022-12-14T07:11:52.220Z,100166.03
2022-12-14T07:14:55.087Z,100176.38
2022-12-14T07:17:57.676Z,100179.81
2022-12-14T07:21:02.311Z,100169.31
2022-12-14T07:24:05.359Z,100169.34
2022-12-14T07:27:09.309Z,100168.47
2022-12-14T07:30:12.636Z,100165.88
2022-12-14T07:33:15.238Z,100165.03
2022-12-14T07:36:19.135Z,100155.47
2022-12-14T07:39:22.789Z,100158.09
2022-12-14T07:42:26.883Z,100156.28
2022-12-14T07:45:29.523Z,100162.38
2022-12-14T07:48:32.575Z,100154.59
2022-12-14T07:51:37.653Z,100159.78
2022-12-14T07:54:40.232Z,100163.22
2022-12-14T07:57:44.368Z,100164.97
2022-12-14T08:00:48.217Z,100165.84
2022-12-14T08:03:52.781Z,100152.75
2022-12-14T08:06:55.360Z,100150.22
2022-12-14T08:09:58.009Z,100151.13
2022-12-14T08:13:01.955Z,100148.59
2022-12-14T08:16:05.700Z,100150.28
2022-12-14T08:19:08.311Z,100138.25
2022-12-14T08:22:11.440Z,100139.09
2022-12-14T08:25:14.035Z,100141.59
2022-12-14T08:28:18.008Z,100147.69
2022-12-14T08:31:22.796Z,100143.34
2022-12-14T08:34:25.393Z,100134.78
2022-12-14T08:37:27.980Z,100134.84
2022-12-14T08:40:32.278Z,100131.38
2022-12-14T08:43:37.365Z,100138.38
2022-12-14T08:46:40.197Z,100140.09
2022-12-14T08:49:42.809Z,100135.81
2022-12-14T08:52:48.217Z,100133.22
2022-12-14T08:55:50.810Z,100117.69
2022-12-14T08:58:54.794Z,100118.56
2022-12-14T09:01:57.600Z,100116.84
2022-12-14T09:05:00.294Z,100116.81
2022-12-14T09:08:02.880Z,100121.97
2022-12-14T09:11:07.076Z,100123.81
2022-12-14T09:14:11.053Z,100127.25
2022-12-14T09:17:14.168Z,100119.50
2022-12-14T09:20:17.075Z,100109.09
2022-12-14T09:23:19.656Z,100104.75
2022-12-14T09:26:24.510Z,100109.94
2022-12-14T09:29:28.862Z,100110.78
2022-12-14T09:32:31.595Z,100105.56
2022-12-14T09:35:34.174Z,100099.44
2022-12-14T09:38:39.197Z,100102.00
2022-12-14T09:41:57.696Z,100102.88
2022-12-14T09:45:12.508Z,100102.84
2022-12-14T09:48:19.536Z,100092.47
2022-12-14T09:51:23.853Z,100092.44
2022-12-14T09:54:29.363Z,100089.84
2022-12-14T09:57:39.010Z,100086.38
2022-12-14T10:00:53.161Z,100074.22
2022-12-14T10:04:06.008Z,100069.81
2022-12-14T10:07:17.715Z,100073.25
2022-12-14T10:10:26.580Z,100066.31
2022-12-14T10:13:38.438Z,100065.41
2022-12-14T10:16:52.628Z,100072.31
2022-12-14T10:19:57.420Z,100068.00
2022-12-14T10:23:02.348Z,100066.22
2022-12-14T10:26:08.992Z,100060.09
2022-12-14T10:29:17.994Z,100057.47
2022-12-14T10:32:28.312Z,100054.88
2022-12-14T10:35:36.857Z,100050.41
2022-12-14T10:38:46.021Z,100046.00
2022-12-14T10:41:59.701Z,100041.56
2022-12-14T10:45:39.875Z,100037.72
2022-12-14T10:48:45.107Z,100046.00
2022-12-14T10:51:51.995Z,100036.91
2022-12-14T10:54:59.618Z,100034.75
2022-12-14T10:58:02.200Z,100035.94
2022-12-14T11:01:04.992Z,100028.94
2022-12-14T11:04:19.259Z,100026.06
2022-12-14T11:07:25.651Z,100029.81
2022-12-14T11:10:29.391Z,100027.56
2022-12-14T11:13:32.031Z,100018.22
2022-12-14T11:16:37.463Z,100026.88
2022-12-14T11:19:41.663Z,100022.97
2022-12-14T11:22:45.424Z,100022.53
2022-12-14T11:25:51.395Z,100015.63
2022-12-14T11:28:55.804Z,100015.75
2022-12-14T11:32:00.224Z,100008.38
2022-12-14T11:35:04.359Z,100015.34
2022-12-14T11:38:07.283Z,100011.31
2022-12-14T11:41:21.486Z,99998.34
2022-12-14T11:44:26.248Z,99995.03
2022-12-14T11:47:29.121Z,99999.44
2022-12-14T11:50:33.099Z,100000.09
2022-12-14T11:53:35.696Z,100002.72
2022-12-14T11:56:38.351Z,99995.69
2022-12-14T11:59:48.550Z,100003.66
2022-12-14T12:03:00.720Z,100002.94
2022-12-14T12:06:07.895Z,100001.22
2022-12-14T12:09:23.424Z,100002.88
2022-12-14T12:12:26.055Z,99997.56
2022-12-14T12:15:36.828Z,99993.19
2022-12-14T12:18:46.615Z,99995.81
2022-12-14T12:21:52.173Z,99990.91
2022-12-14T12:25:33.667Z,99983.78
2022-12-14T12:28:26.930Z,99987.28
2022-12-14T12:31:35.506Z,99984.38
2022-12-14T12:34:44.978Z,99977.31
2022-12-14T12:37:52.653Z,99979.63
2022-12-14T12:41:04.192Z,99976.94
2022-12-14T12:44:23.980Z,99976.31
2022-12-14T12:47:43.179Z,99975.56
2022-12-14T12:50:52.519Z,99964.69
2022-12-14T12:54:00.303Z,99962.75
2022-12-14T12:57:05.933Z,99973.28
2022-12-14T13:00:15.512Z,99967.69
2022-12-14T13:03:23.647Z,99959.25
2022-12-14T13:06:31.618Z,99951.59
2022-12-14T13:09:42.374Z,99953.25
2022-12-14T13:12:48.964Z,99959.44
2022-12-14T13:15:55.136Z,99962.19
2022-12-14T13:19:32.093Z,99958.13
2022-12-14T13:22:29.469Z,99951.38
2022-12-14T13:25:48.968Z,99955.19
2022-12-14T13:29:02.661Z,99955.16
2022-12-14T13:32:14.523Z,99956.91
2022-12-14T13:35:34.898Z,99949.28
2022-12-14T13:39:02.378Z,99956.41
2022-12-14T13:42:09.196Z,99952.69
2022-12-14T13:45:18.974Z,99943.91
2022-12-14T13:48:24.945Z,99942.41
2022-12-14T13:51:30.502Z,99944.22
2022-12-14T13:54:36.039Z,99945.03
2022-12-14T13:57:39.977Z,99936.34
2022-12-14T14:00:57.868Z,99938.22
2022-12-14T14:04:22.188Z,99937.28
2022-12-14T14:07:50.432Z,99930.41
2022-12-14T14:11:02.459Z,99932.97
2022-12-14T14:14:47.917Z,99926.81
2022-12-14T14:17:53.849Z,99928.69
2022-12-14T14:21:31.343Z,99929.69
2022-12-14T14:24:56.754Z,99930.34
2022-12-14T14:28:01.579Z,99929.56
2022-12-14T14:31:05.947Z,99941.69
2022-12-14T14:34:21.913Z,99938.19
2022-12-14T14:37:36.184Z,99936.00
2022-12-14T14:41:13.939Z,99933.22
2022-12-14T14:44:05.790Z,99929.91
2022-12-14T14:47:24.170Z,99924.88
2022-12-14T14:50:32.654Z,99932.63
2022-12-14T14:53:36.301Z,99922.53
2022-12-14T14:56:39.993Z,99927.03
2022-12-14T14:59:51.176Z,99923.69
2022-12-14T15:02:55.826Z,99936.72
2022-12-14T15:06:00.608Z,99933.28
2022-12-14T15:09:08.075Z,99936.88
2022-12-14T15:12:25.707Z,99931.72
2022-12-14T15:15:35.740Z,99931.50
2022-12-14T15:18:39.681Z,99934.28
2022-12-14T15:21:42.751Z,99935.28
2022-12-14T15:24:47.494Z,99943.06
2022-12-14T15:27:50.897Z,99936.41
2022-12-14T15:30:54.958Z,99946.09
2022-12-14T15:34:00.150Z,99953.19
2022-12-14T15:37:03.145Z,99947.13
2022-12-14T15:40:08.401Z,99952.25
2022-12-14T15:43:19.049Z,99955.72
2022-12-14T15:46:26.544Z,99956.59
2022-12-14T15:49:30.569Z,99956.75
2022-12-14T15:52:33.987Z,99955.00
2022-12-14T15:55:38.729Z,99944.66
2022-12-14T15:58:42.001Z,99949.78
2022-12-14T16:01:53.709Z,99957.66
2022-12-14T16:05:01.580Z,99955.16
2022-12-14T16:08:04.512Z,99944.81
2022-12-14T16:11:13.866Z,99947.38
2022-12-14T16:14:21.352Z,99937.97
2022-12-14T16:17:27.359Z,99938.97
2022-12-14T16:20:32.815Z,99937.31
2022-12-14T16:23:41.980Z,99941.59
2022-12-14T16:26:57.352Z,99946.78
2022-12-14T16:30:09.144Z,99947.69
2022-12-14T16:33:18.886Z,99938.22
2022-12-14T16:36:26.293Z,99933.84
2022-12-14T16:39:35.208Z,99945.09
2022-12-14T16:42:37.813Z,99943.38
2022-12-14T16:46:14.080Z,99945.97
2022-12-14T16:49:22.183Z,99926.13
2022-12-14T16:52:28.783Z,99933.97
2022-12-14T16:55:31.428Z,99933.16
2022-12-14T16:58:34.220Z,99929.69
2022-12-14T17:01:42.662Z,99935.78
2022-12-14T17:04:45.406Z,99934.84
2022-12-14T17:07:50.083Z,99934.84
2022-12-14T17:10:52.814Z,99933.13
2022-12-14T17:13:55.723Z,99933.19
2022-12-14T17:17:01.842Z,99938.38
2022-12-14T17:20:11.965Z,99934.09
2022-12-14T17:23:18.878Z,99926.38
2022-12-14T17:26:23.752Z,99924.63
2022-12-14T17:29:28.359Z,99917.69
2022-12-14T17:32:31.519Z,99923.75
2022-12-14T17:35:34.134Z,99929.81
2022-12-14T17:38:38.128Z,99935.00
2022-12-14T17:41:43.279Z,99945.41
2022-12-14T17:44:52.076Z,99938.47
2022-12-14T17:47:55.421Z,99935.06
2022-12-14T17:50:58.038Z,99955.84
2022-12-14T17:54:01.993Z,99944.53
2022-12-14T17:57:07.319Z,99948.00
2022-12-14T18:00:32.920Z,99940.16
2022-12-14T18:03:37.033Z,99931.50
2022-12-14T18:06:39.865Z,99936.66
2022-12-14T18:09:44.109Z,99933.19
2022-12-14T18:12:46.752Z,99927.91
2022-12-14T18:15:51.550Z,99936.53
2022-12-14T18:18:55.189Z,99943.38
2022-12-14T18:21:58.003Z,99939.03
2022-12-14T18:25:02.101Z,99936.41
2022-12-14T18:28:06.849Z,99939.81
2022-12-14T18:31:20.235Z,99935.47
2022-12-14T18:34:22.846Z,99939.81
2022-12-14T18:37:28.389Z,99939.94
2022-12-14T18:40:36.675Z,99944.16
2022-12-14T18:43:43.638Z,99940.59
2022-12-14T18:46:49.309Z,99936.41
2022-12-14T18:49:52.398Z,99938.19
2022-12-14T18:52:56.285Z,99938.16
2022-12-14T18:56:09.428Z,99936.31
2022-12-14T18:59:12.023Z,99942.47
2022-12-14T19:02:15.639Z,99938.22
2022-12-14T19:05:25.595Z,99937.34
2022-12-14T19:08:28.623Z,99941.72
2022-12-14T19:11:35.074Z,99931.28
2022-12-14T19:14:37.664Z,99932.13
2022-12-14T19:17:40.267Z,99930.44
2022-12-14T19:20:42.833Z,99939.97
2022-12-14T19:23:45.741Z,99944.34
2022-12-14T19:26:49.962Z,99943.50
2022-12-14T19:29:52.554Z,99954.72
2022-12-14T19:32:57.072Z,99959.16
2022-12-14T19:36:00.161Z,99967.84
2022-12-14T19:39:02.738Z,99976.47
2022-12-14T19:42:06.766Z,99979.13
2022-12-14T19:45:11.101Z,99973.91
2022-12-14T19:48:13.850Z,99974.81
2022-12-14T19:51:18.285Z,99969.59
2022-12-14T19:54:20.935Z,99974.81
2022-12-14T19:57:24.881Z,99978.28
2022-12-14T20:00:27.492Z,99971.31
2022-12-14T20:03:30.748Z,99966.19
2022-12-14T20:06:34.497Z,99973.13
2022-12-14T20:09:37.239Z,99980.91
2022-12-14T20:12:41.172Z,99979.16
2022-12-14T20:15:48.998Z,99980.88
2022-12-14T20:18:51.890Z,99979.19
2022-12-14T20:21:54.476Z,99968.84
2022-12-14T20:24:57.065Z,99983.53
2022-12-14T20:28:01.043Z,99974.88
2022-12-14T20:31:06.131Z,99969.66
2022-12-14T20:34:08.970Z,99971.44
2022-12-14T20:37:11.623Z,99977.44
2022-12-14T20:40:14.763Z,99977.47
2022-12-14T20:43:18.734Z,99977.44
2022-12-14T20:46:27.320Z,99967.91
2022-12-14T20:49:32.749Z,99976.56
2022-12-14T20:52:35.333Z,99967.91
2022-12-14T20:55:38.054Z,99975.72
2022-12-14T20:58:46.923Z,99969.59
2022-12-14T21:01:55.489Z,99968.78
2022-12-14T21:04:59.042Z,99965.34
2022-12-14T21:08:01.638Z,99960.97
2022-12-14T21:11:24.877Z,99963.59
2022-12-14T21:14:30.561Z,99960.97
2022-12-14T21:17:33.622Z,99964.47
2022-12-14T21:20:37.414Z,99963.56
2022-12-14T21:23:41.925Z,99971.41
2022-12-14T21:26:44.776Z,99972.28
2022-12-14T21:29:54.005Z,99976.59
2022-12-14T21:32:56.621Z,99967.97
2022-12-14T21:35:59.249Z,99967.09
2022-12-14T21:39:03.292Z,99961.03
2022-12-14T21:42:15.315Z,99967.97
2022-12-14T21:45:19.253Z,99980.09
2022-12-14T21:48:21.858Z,99983.56
2022-12-14T21:51:24.428Z,99981.78
2022-12-14T21:54:27.235Z,99988.72
2022-12-14T21:57:50.386Z,99974.88
2022-12-14T22:00:54.750Z,99972.25
2022-12-14T22:03:57.402Z,99972.28
2022-12-14T22:07:01.014Z,99980.94
2022-12-14T22:10:03.996Z,99980.09
2022-12-14T22:13:06.563Z,99992.19
2022-12-14T22:16:11.458Z,99992.22
2022-12-14T22:19:16.012Z,99988.75
2022-12-14T22:22:18.895Z,99980.09
2022-12-14T22:25:21.472Z,99985.31
2022-12-14T22:28:24.577Z,99988.75
2022-12-14T22:31:28.870Z,99978.34
2022-12-14T22:34:31.482Z,99976.63
2022-12-14T22:37:34.082Z,99982.69
2022-12-14T22:40:36.807Z,99993.06
2022-12-14T22:43:39.832Z,99996.56
2022-12-14T22:46:44.082Z,100006.06
2022-12-14T22:49:47.039Z,99997.41
2022-12-14T22:52:49.919Z,99997.41
2022-12-14T22:55:52.983Z,99989.63
2022-12-14T22:59:04.418Z,99995.69
2022-12-14T23:02:08.705Z,100002.59
2022-12-14T23:05:12.969Z,100014.72
2022-12-14T23:08:16.010Z,100011.25
2022-12-14T23:11:36.263Z,100021.63
2022-12-14T23:14:56.538Z,100024.22
2022-12-14T23:18:21.074Z,100026.81
2022-12-14T23:21:41.376Z,100017.28
2022-12-14T23:25:01.600Z,100023.38
2022-12-14T23:28:22.357Z,100016.44
2022-12-14T23:31:42.725Z,100012.97
2022-12-14T23:35:04.498Z,100012.97
2022-12-14T23:38:25.326Z,100012.97
2022-12-14T23:41:45.532Z,100006.88
2022-12-14T23:45:05.769Z,100008.63
2022-12-14T23:48:26.039Z,100005.16
2022-12-14T23:51:47.625Z,100002.56
2022-12-14T23:55:07.841Z,99999.97
2022-12-14T23:58:28.104Z,100001.66
